sensor_id;sensor_type;location;lat;lon;timestamp;pressure;altitude;pressure_sealevel;temperature;humidity
49122;BME280;35529;44.342;25.944;2022-12-15T00:02:24;100035.19;;;4.66;100.00
49122;BME280;35529;44.342;25.944;2022-12-15T00:05:09;100024.16;;;4.71;100.00
49122;BME280;35529;44.342;25.944;2022-12-15T00:07:54;100029.06;;;4.74;100.00
49122;BME280;35529;44.342;25.944;2022-12-15T00:10:39;100025.28;;;4.77;100.00
49122;BME280;35529;44.342;25.944;2022-12-15T00:13:23;100021.50;;;4.79;100.00
49122;BME280;35529;44.342;25.944;2022-12-15T00:16:08;100018.69;;;4.81;100.00
49122;BME280;35529;44.342;25.944;2022-12-15T00:18:53;100025.28;;;4.77;100.00
49122;BME280;35529;44.342;25.944;2022-12-15T00:21:37;100018.41;;;4.76;100.00
49122;BME280;35529;44.342;25.944;2022-12-15T00:24:22;100021.19;;;4.74;100.00
49122;BME280;35529;44.342;25.944;2022-12-15T00:27:07;100021.03;;;4.76;100.00
49122;BME280;35529;44.342;25.944;2022-12-15T00:29:51;100032.88;;;4.72;100.00
49122;BME280;35529;44.342;25.944;2022-12-15T00:32:36;100026.16;;;4.69;100.00
49122;BME280;35529;44.342;25.944;2022-12-15T00:35:21;100024.00;;;4.64;100.00
49122;BME280;35529;44.342;25.944;2022-12-15T00:38:10;100020.91;;;4.69;100.00
49122;BME280;35529;44.342;25.944;2022-12-15T00:40:55;100028.44;;;4.72;100.00
49122;BME280;35529;44.342;25.944;2022-12-15T00:43:25;100029.94;;;4.66;100.00
49122;BME280;35529;44.342;25.944;2022-12-15T00:45:51;100028.47;;;4.64;100.00
49122;BME280;35529;44.342;25.944;2022-12-15T00:48:35;100037.00;;;4.66;100.00
49122;BME280;35529;44.342;25.944;2022-12-15T00:51:01;100038.16;;;4.63;100.00
49122;BME280;35529;44.342;25.944;2022-12-15T00:53:28;100041.78;;;4.62;100.00
49122;BME280;35529;44.342;25.944;2022-12-15T00:56:12;100029.50;;;4.46;100.00
49122;BME280;35529;44.342;25.944;2022-12-15T00:58:57;100028.34;;;4.41;100.00
49122;BME280;35529;44.342;25.944;2022-12-15T01:01:42;100034.59;;;4.48;100.00
49122;BME280;35529;44.342;25.944;2022-12-15T01:04:26;100024.22;;;4.55;100.00
49122;BME280;35529;44.342;25.944;2022-12-15T01:07:11;100022.75;;;4.44;100.00
49122;BME280;35529;44.342;25.944;2022-12-15T01:09:57;100006.53;;;4.24;100.00
49122;BME280;35529;44.342;25.944;2022-12-15T01:12:42;100006.69;;;4.14;100.00
49122;BME280;35529;44.342;25.944;2022-12-15T01:15:27;100005.56;;;4.08;100.00
49122;BME280;35529;44.342;25.944;2022-12-15T01:18:12;100009.66;;;4.19;100.00
49122;BME280;35529;44.342;25.944;2022-12-15T01:20:57;99998.47;;;4.33;100.00
49122;BME280;35529;44.342;25.944;2022-12-15T01:23:24;100002.75;;;4.34;100.00
49122;BME280;35529;44.342;25.944;2022-12-15T01:25:50;99992.53;;;4.40;100.00
49122;BME280;35529;44.342;25.944;2022-12-15T01:28:17;99974.16;;;4.40;100.00
49122;BME280;35529;44.342;25.944;2022-12-15T01:30:44;99975.63;;;4.42;100.00
49122;BME280;35529;44.342;25.944;2022-12-15T01:33:10;99976.75;;;4.48;100.00
49122;BME280;35529;44.342;25.944;2022-12-15T01:35:37;99974.44;;;4.53;100.00
49122;BME280;35529;44.342;25.944;2022-12-15T01:38:04;99978.84;;;4.52;100.00
49122;BME280;35529;44.342;25.944;2022-12-15T01:40:30;99978.53;;;4.56;100.00
49122;BME280;35529;44.342;25.944;2022-12-15T01:43:12;99982.97;;;4.55;100.00
49122;BME280;35529;44.342;25.944;2022-12-15T01:45:46;99991.81;;;4.54;100.00
49122;BME280;35529;44.342;25.944;2022-12-15T01:48:14;99977.38;;;4.50;100.00
49122;BME280;35529;44.342;25.944;2022-12-15T01:50:44;99985.41;;;4.57;100.00
49122;BME280;35529;44.342;25.944;2022-12-15T01:53:11;99984.59;;;4.56;100.00
49122;BME280;35529;44.342;25.944;2022-12-15T01:55:39;99980.69;;;4.52;100.00
49122;BME280;35529;44.342;25.944;2022-12-15T01:58:07;99973.28;;;4.56;100.00
49122;BME280;35529;44.342;25.944;2022-12-15T02:00:34;99963.22;;;4.59;100.00
49122;BME280;35529;44.342;25.944;2022-12-15T02:03:00;99959.13;;;4.57;100.00
49122;BME280;35529;44.342;25.944;2022-12-15T02:05:27;99959.16;;;4.48;100.00
49122;BME280;35529;44.342;25.944;2022-12-15T02:07:54;99959.28;;;4.55;100.00
49122;BME280;35529;44.342;25.944;2022-12-15T02:10:21;99959.13;;;4.57;100.00
49122;BME280;35529;44.342;25.944;2022-12-15T02:20:36;99961.41;;;4.68;100.00
49122;BME280;35529;44.342;25.944;2022-12-15T02:23:12;99949.91;;;4.61;100.00
49122;BME280;35529;44.342;25.944;2022-12-15T02:28:31;99924.75;;;4.66;100.00
49122;BME280;35529;44.342;25.944;2022-12-15T02:31:15;99934.63;;;4.64;100.00
49122;BME280;35529;44.342;25.944;2022-12-15T02:34:04;99941.88;;;4.62;100.00
49122;BME280;35529;44.342;25.944;2022-12-15T02:36:37;99940.88;;;4.55;100.00
49122;BME280;35529;44.342;25.944;2022-12-15T02:39:04;99942.00;;;4.61;100.00
49122;BME280;35529;44.342;25.944;2022-12-15T02:41:35;99940.34;;;4.68;100.00
49122;BME280;35529;44.342;25.944;2022-12-15T02:44:03;99934.25;;;4.67;100.00
49122;BME280;35529;44.342;25.944;2022-12-15T02:46:34;99932.16;;;4.63;100.00
49122;BME280;35529;44.342;25.944;2022-12-15T02:49:14;99921.28;;;4.66;100.00
49122;BME280;35529;44.342;25.944;2022-12-15T02:57:36;99915.91;;;4.59;100.00
49122;BME280;35529;44.342;25.944;2022-12-15T03:00:07;99916.72;;;4.60;100.00
49122;BME280;35529;44.342;25.944;2022-12-15T03:02:34;99924.44;;;4.61;100.00
49122;BME280;35529;44.342;25.944;2022-12-15T03:05:02;99924.13;;;4.56;100.00
49122;BME280;35529;44.342;25.944;2022-12-15T03:07:28;99929.22;;;4.58;100.00
49122;BME280;35529;44.342;25.944;2022-12-15T03:09:55;99922.81;;;4.60;100.00
49122;BME280;35529;44.342;25.944;2022-12-15T03:12:22;99929.34;;;4.64;100.00
49122;BME280;35529;44.342;25.944;2022-12-15T03:14:48;99930.50;;;4.62;100.00
49122;BME280;35529;44.342;25.944;2022-12-15T03:17:14;99926.53;;;4.66;100.00
49122;BME280;35529;44.342;25.944;2022-12-15T03:19:40;99933.59;;;4.74;100.00
49122;BME280;35529;44.342;25.944;2022-12-15T03:22:07;99930.31;;;4.72;100.00
49122;BME280;35529;44.342;25.944;2022-12-15T03:24:33;99934.63;;;4.64;100.00
49122;BME280;35529;44.342;25.944;2022-12-15T03:26:59;99928.50;;;4.72;100.00
49122;BME280;35529;44.342;25.944;2022-12-15T03:29:25;99919.81;;;4.72;100.00
49122;BME280;35529;44.342;25.944;2022-12-15T03:31:51;99922.72;;;4.77;100.00
49122;BME280;35529;44.342;25.944;2022-12-15T03:34:18;99925.22;;;4.70;100.00
49122;BME280;35529;44.342;25.944;2022-12-15T03:36:44;99920.16;;;4.60;100.00
49122;BME280;35529;44.342;25.944;2022-12-15T03:39:10;99915.22;;;4.65;100.00
49122;BME280;35529;44.342;25.944;2022-12-15T03:41:36;99920.13;;;4.68;100.00
49122;BME280;35529;44.342;25.944;2022-12-15T03:44:02;99910.84;;;4.81;100.00
49122;BME280;35529;44.342;25.944;2022-12-15T03:46:28;99912.63;;;4.89;100.00
49122;BME280;35529;44.342;25.944;2022-12-15T03:48:54;99916.53;;;4.93;100.00
49122;BME280;35529;44.342;25.944;2022-12-15T03:51:21;99917.72;;;4.90;100.00
49122;BME280;35529;44.342;25.944;2022-12-15T03:53:47;99903.28;;;4.86;100.00
49122;BME280;35529;44.342;25.944;2022-12-15T03:56:14;99901.81;;;4.83;100.00
49122;BME280;35529;44.342;25.944;2022-12-15T03:58:40;99902.09;;;4.89;100.00
49122;BME280;35529;44.342;25.944;2022-12-15T04:01:18;99899.59;;;4.95;100.00
49122;BME280;35529;44.342;25.944;2022-12-15T04:03:47;99910.34;;;4.85;100.00
49122;BME280;35529;44.342;25.944;2022-12-15T04:06:13;99918.63;;;4.74;100.00
49122;BME280;35529;44.342;25.944;2022-12-15T04:08:39;99914.50;;;4.80;100.00
49122;BME280;35529;44.342;25.944;2022-12-15T04:11:05;99917.31;;;4.78;100.00
49122;BME280;35529;44.342;25.944;2022-12-15T04:13:31;99917.75;;;4.82;100.00
49122;BME280;35529;44.342;25.944;2022-12-15T04:16:00;99918.59;;;4.82;100.00
49122;BME280;35529;44.342;25.944;2022-12-15T04:18:26;99925.91;;;4.95;100.00
49122;BME280;35529;44.342;25.944;2022-12-15T04:20:52;99933.16;;;4.93;100.00
49122;BME280;35529;44.342;25.944;2022-12-15T04:23:18;99927.56;;;4.96;100.00
49122;BME280;35529;44.342;25.944;2022-12-15T04:25:44;99926.22;;;5.00;100.00
49122;BME280;35529;44.342;25.944;2022-12-15T04:28:28;99915.38;;;4.95;100.00
49122;BME280;35529;44.342;25.944;2022-12-15T04:31:14;99912.44;;;4.98;100.00
49122;BME280;35529;44.342;25.944;2022-12-15T04:34:04;99915.31;;;5.03;100.00
49122;BME280;35529;44.342;25.944;2022-12-15T04:36:50;99920.13;;;5.00;100.00
49122;BME280;35529;44.342;25.944;2022-12-15T04:39:36;99920.31;;;4.98;100.00
49122;BME280;35529;44.342;25.944;2022-12-15T04:42:21;99925.59;;;4.98;100.00
49122;BME280;35529;44.342;25.944;2022-12-15T04:45:06;99922.66;;;4.93;100.00
49122;BME280;35529;44.342;25.944;2022-12-15T04:47:51;99933.16;;;4.93;100.00
49122;BME280;35529;44.342;25.944;2022-12-15T04:50:35;99932.47;;;4.99;100.00
49122;BME280;35529;44.342;25.944;2022-12-15T04:53:20;99936.38;;;5.03;100.00
49122;BME280;35529;44.342;25.944;2022-12-15T04:56:09;99930.00;;;4.98;100.00
49122;BME280;35529;44.342;25.944;2022-12-15T04:58:54;99942.97;;;4.99;100.00
49122;BME280;35529;44.342;25.944;2022-12-15T05:01:38;99945.97;;;4.96;100.00
49122;BME280;35529;44.342;25.944;2022-12-15T05:04:23;99942.84;;;4.93;100.00
49122;BME280;35529;44.342;25.944;2022-12-15T05:07:08;99949.59;;;4.95;100.00
49122;BME280;35529;44.342;25.944;2022-12-15T05:09:53;99957.16;;;4.90;100.00
49122;BME280;35529;44.342;25.944;2022-12-15T05:12:38;99954.34;;;5.00;100.00
49122;BME280;35529;44.342;25.944;2022-12-15T05:15:22;99956.44;;;5.04;100.00
49122;BME280;35529;44.342;25.944;2022-12-15T05:18:07;99959.56;;;5.08;100.00
49122;BME280;35529;44.342;25.944;2022-12-15T05:20:52;99961.03;;;5.11;100.00
49122;BME280;35529;44.342;25.944;2022-12-15T05:23:37;99962.09;;;4.93;100.00
49122;BME280;35529;44.342;25.944;2022-12-15T05:26:21;99961.44;;;4.91;100.00
49122;BME280;35529;44.342;25.944;2022-12-15T05:29:06;99967.06;;;4.88;100.00
49122;BME280;35529;44.342;25.944;2022-12-15T05:31:50;99966.72;;;4.91;100.00
49122;BME280;35529;44.342;25.944;2022-12-15T05:34:20;99973.94;;;4.97;100.00
49122;BME280;35529;44.342;25.944;2022-12-15T05:36:46;99979.38;;;4.96;100.00
49122;BME280;35529;44.342;25.944;2022-12-15T05:39:12;99976.75;;;4.87;100.00
49122;BME280;35529;44.342;25.944;2022-12-15T05:41:39;99978.75;;;4.85;100.00
49122;BME280;35529;44.342;25.944;2022-12-15T05:44:05;99984.50;;;4.89;100.00
49122;BME280;35529;44.342;25.944;2022-12-15T05:46:31;99990.38;;;4.91;100.00
49122;BME280;35529;44.342;25.944;2022-12-15T05:48:57;99986.09;;;4.90;100.00
49122;BME280;35529;44.342;25.944;2022-12-15T05:51:23;99996.84;;;4.80;100.00
49122;BME280;35529;44.342;25.944;2022-12-15T05:53:49;100001.28;;;4.80;100.00
49122;BME280;35529;44.342;25.944;2022-12-15T05:56:15;100001.28;;;4.80;100.00
49122;BME280;35529;44.342;25.944;2022-12-15T05:58:41;100009.34;;;4.78;100.00
49122;BME280;35529;44.342;25.944;2022-12-15T06:01:09;100000.63;;;4.78;100.00
49122;BME280;35529;44.342;25.944;2022-12-15T06:03:37;100008.31;;;4.87;100.00
49122;BME280;35529;44.342;25.944;2022-12-15T06:06:03;100010.44;;;4.92;100.00
49122;BME280;35529;44.342;25.944;2022-12-15T06:08:31;100010.13;;;4.87;100.00
49122;BME280;35529;44.342;25.944;2022-12-15T06:10:57;100013.44;;;4.81;100.00
49122;BME280;35529;44.342;25.944;2022-12-15T06:13:23;100018.25;;;4.69;100.00
49122;BME280;35529;44.342;25.944;2022-12-15T06:16:32;100025.28;;;4.77;100.00
49122;BME280;35529;44.342;25.944;2022-12-15T06:18:41;100018.38;;;4.84;100.00
49122;BME280;35529;44.342;25.944;2022-12-15T06:21:11;100023.94;;;4.81;100.00
49122;BME280;35529;44.342;25.944;2022-12-15T06:23:38;100039.41;;;4.84;100.00
49122;BME280;35529;44.342;25.944;2022-12-15T06:26:11;100048.56;;;4.96;100.00
49122;BME280;35529;44.342;25.944;2022-12-15T06:28:39;100051.03;;;4.98;100.00
49122;BME280;35529;44.342;25.944;2022-12-15T06:31:06;100053.84;;;4.96;100.00
49122;BME280;35529;44.342;25.944;2022-12-15T06:33:32;100055.00;;;4.94;100.00
49122;BME280;35529;44.342;25.944;2022-12-15T06:36:08;100052.81;;;5.06;100.00
49122;BME280;35529;44.342;25.944;2022-12-15T06:38:35;100073.03;;;5.13;100.00
49122;BME280;35529;44.342;25.944;2022-12-15T06:41:02;100098.81;;;5.18;100.00
49122;BME280;35529;44.342;25.944;2022-12-15T06:43:28;100102.28;;;5.18;100.00
49122;BME280;35529;44.342;25.944;2022-12-15T06:45:55;100107.06;;;5.15;100.00
49122;BME280;35529;44.342;25.944;2022-12-15T06:48:22;100112.50;;;5.13;100.00
49122;BME280;35529;44.342;25.944;2022-12-15T06:50:48;100119.25;;;5.08;100.00
49122;BME280;35529;44.342;25.944;2022-12-15T06:53:15;100116.31;;;5.02;100.00
49122;BME280;35529;44.342;25.944;2022-12-15T06:55:42;100128.31;;;4.97;100.00
49122;BME280;35529;44.342;25.944;2022-12-15T06:58:09;100128.84;;;4.92;100.00
49122;BME280;35529;44.342;25.944;2022-12-15T07:00:35;100138.69;;;4.90;100.00
49122;BME280;35529;44.342;25.944;2022-12-15T07:03:02;100136.06;;;4.98;100.00
49122;BME280;35529;44.342;25.944;2022-12-15T07:05:28;100147.41;;;4.99;100.00
49122;BME280;35529;44.342;25.944;2022-12-15T07:07:54;100152.16;;;5.03;100.00
49122;BME280;35529;44.342;25.944;2022-12-15T07:10:21;100164.81;;;5.08;100.00
49122;BME280;35529;44.342;25.944;2022-12-15T07:12:47;100173.34;;;5.10;100.00
49122;BME280;35529;44.342;25.944;2022-12-15T07:15:13;100185.69;;;5.10;100.00
49122;BME280;35529;44.342;25.944;2022-12-15T07:17:39;100168.22;;;5.17;100.00
49122;BME280;35529;44.342;25.944;2022-12-15T07:20:06;100161.94;;;5.26;100.00
49122;BME280;35529;44.342;25.944;2022-12-15T07:22:32;100173.28;;;5.35;100.00
49122;BME280;35529;44.342;25.944;2022-12-15T07:24:58;100162.25;;;5.40;100.00
49122;BME280;35529;44.342;25.944;2022-12-15T07:27:25;100172.25;;;5.52;100.00
49122;BME280;35529;44.342;25.944;2022-12-15T07:29:51;100167.72;;;5.69;100.00
49122;BME280;35529;44.342;25.944;2022-12-15T07:32:17;100160.53;;;5.86;100.00
49122;BME280;35529;44.342;25.944;2022-12-15T07:34:43;100153.09;;;5.98;100.00
49122;BME280;35529;44.342;25.944;2022-12-15T07:37:09;100156.84;;;6.04;100.00
49122;BME280;35529;44.342;25.944;2022-12-15T07:39:35;100145.09;;;6.15;100.00
49122;BME280;35529;44.342;25.944;2022-12-15T07:42:02;100160.63;;;6.10;100.00
49122;BME280;35529;44.342;25.944;2022-12-15T07:44:28;100169.16;;;6.12;100.00
49122;BME280;35529;44.342;25.944;2022-12-15T07:46:54;100161.25;;;6.12;100.00
49122;BME280;35529;44.342;25.944;2022-12-15T07:49:20;100168.16;;;6.13;100.00
49122;BME280;35529;44.342;25.944;2022-12-15T07:51:46;100166.81;;;6.17;100.00
49122;BME280;35529;44.342;25.944;2022-12-15T07:54:13;100169.94;;;6.20;100.00
49122;BME280;35529;44.342;25.944;2022-12-15T07:56:39;100182.00;;;6.15;100.00
49122;BME280;35529;44.342;25.944;2022-12-15T07:59:06;100183.97;;;6.13;100.00
49122;BME280;35529;44.342;25.944;2022-12-15T08:01:32;100189.31;;;6.04;100.00
49122;BME280;35529;44.342;25.944;2022-12-15T08:04:00;100202.44;;;6.13;100.00
49122;BME280;35529;44.342;25.944;2022-12-15T08:06:26;100210.66;;;6.18;100.00
49122;BME280;35529;44.342;25.944;2022-12-15T08:08:52;100203.66;;;6.25;100.00
49122;BME280;35529;44.342;25.944;2022-12-15T08:11:19;100222.16;;;6.48;100.00
49122;BME280;35529;44.342;25.944;2022-12-15T08:13:46;100227.19;;;6.58;100.00
49122;BME280;35529;44.342;25.944;2022-12-15T08:16:12;100232.94;;;6.62;100.00
49122;BME280;35529;44.342;25.944;2022-12-15T08:18:38;100248.22;;;6.66;100.00
49122;BME280;35529;44.342;25.944;2022-12-15T08:21:05;100245.22;;;6.69;100.00
49122;BME280;35529;44.342;25.944;2022-12-15T08:23:33;100249.00;;;6.75;100.00
49122;BME280;35529;44.342;25.944;2022-12-15T08:26:03;100262.72;;;6.70;100.00
49122;BME280;35529;44.342;25.944;2022-12-15T08:28:29;100255.16;;;6.67;100.00
49122;BME280;35529;44.342;25.944;2022-12-15T08:31:03;100255.22;;;6.59;100.00
49122;BME280;35529;44.342;25.944;2022-12-15T08:33:30;100256.22;;;6.58;100.00
49122;BME280;35529;44.342;25.944;2022-12-15T08:35:57;100262.94;;;6.61;100.00
49122;BME280;35529;44.342;25.944;2022-12-15T08:38:23;100261.41;;;6.66;100.00
49122;BME280;35529;44.342;25.944;2022-12-15T08:40:49;100257.91;;;6.74;100.00
49122;BME280;35529;44.342;25.944;2022-12-15T08:43:16;100257.06;;;6.74;100.00
49122;BME280;35529;44.342;25.944;2022-12-15T08:45:42;100255.91;;;6.76;100.00
49122;BME280;35529;44.342;25.944;2022-12-15T08:48:08;100258.25;;;6.71;100.00
49122;BME280;35529;44.342;25.944;2022-12-15T08:50:34;100261.72;;;6.71;100.00
49122;BME280;35529;44.342;25.944;2022-12-15T08:53:00;100268.34;;;6.67;100.00
49122;BME280;35529;44.342;25.944;2022-12-15T08:55:26;100266.88;;;6.65;100.00
49122;BME280;35529;44.342;25.944;2022-12-15T08:57:53;100269.28;;;6.75;100.00
49122;BME280;35529;44.342;25.944;2022-12-15T09:00:19;100265.69;;;6.91;100.00
49122;BME280;35529;44.342;25.944;2022-12-15T09:02:45;100261.00;;;7.01;100.00
49122;BME280;35529;44.342;25.944;2022-12-15T09:05:11;100255.44;;;7.11;100.00
49122;BME280;35529;44.342;25.944;2022-12-15T09:07:37;100267.56;;;7.05;100.00
49122;BME280;35529;44.342;25.944;2022-12-15T09:10:03;100269.72;;;7.01;100.00
49122;BME280;35529;44.342;25.944;2022-12-15T09:12:29;100268.44;;;6.97;100.00
49122;BME280;35529;44.342;25.944;2022-12-15T09:14:55;100270.28;;;6.97;100.00
49122;BME280;35529;44.342;25.944;2022-12-15T09:17:21;100261.41;;;6.90;100.00
49122;BME280;35529;44.342;25.944;2022-12-15T09:19:47;100264.59;;;6.85;100.00
49122;BME280;35529;44.342;25.944;2022-12-15T09:22:13;100256.84;;;6.83;100.00
49122;BME280;35529;44.342;25.944;2022-12-15T09:24:39;100257.66;;;6.84;100.00
49122;BME280;35529;44.342;25.944;2022-12-15T09:27:05;100271.16;;;6.89;100.00
49122;BME280;35529;44.342;25.944;2022-12-15T09:29:32;100265.06;;;6.88;100.00
49122;BME280;35529;44.342;25.944;2022-12-15T09:31:58;100252.84;;;6.87;100.00
49122;BME280;35529;44.342;25.944;2022-12-15T09:34:24;100263.06;;;6.91;100.00
49122;BME280;35529;44.342;25.944;2022-12-15T09:36:50;100268.09;;;6.77;100.00
49122;BME280;35529;44.342;25.944;2022-12-15T09:39:17;100269.75;;;6.78;100.00
49122;BME280;35529;44.342;25.944;2022-12-15T09:41:47;100258.72;;;6.75;100.00
49122;BME280;35529;44.342;25.944;2022-12-15T09:44:15;100259.19;;;6.78;100.00
49122;BME280;35529;44.342;25.944;2022-12-15T09:49:39;100257.88;;;6.97;100.00
49122;BME280;35529;44.342;25.944;2022-12-15T09:52:18;100257.25;;;6.95;100.00
49122;BME280;35529;44.342;25.944;2022-12-15T09:54:44;100257.88;;;6.97;100.00
49122;BME280;35529;44.342;25.944;2022-12-15T09:59:59;100266.22;;;6.86;100.00
49122;BME280;35529;44.342;25.944;2022-12-15T10:07:58;100258.47;;;6.84;100.00
49122;BME280;35529;44.342;25.944;2022-12-15T10:10:46;100261.28;;;6.83;100.00
49122;BME280;35529;44.342;25.944;2022-12-15T10:13:20;100253.16;;;6.93;100.00
49122;BME280;35529;44.342;25.944;2022-12-15T10:15:52;100254.63;;;6.95;100.00
49122;BME280;35529;44.342;25.944;2022-12-15T10:18:22;100258.16;;;7.02;100.00
49122;BME280;35529;44.342;25.944;2022-12-15T10:20:52;100258.97;;;7.03;100.00
49122;BME280;35529;44.342;25.944;2022-12-15T10:23:19;100266.00;;;7.11;100.00
49122;BME280;35529;44.342;25.944;2022-12-15T10:25:47;100254.75;;;7.17;100.00
49122;BME280;35529;44.342;25.944;2022-12-15T10:33:16;100283.84;;;7.47;100.00
49122;BME280;35529;44.342;25.944;2022-12-15T10:35:44;100276.09;;;7.60;100.00
49122;BME280;35529;44.342;25.944;2022-12-15T10:40:57;100277.28;;;7.58;100.00
49122;BME280;35529;44.342;25.944;2022-12-15T10:43:26;100279.91;;;7.58;100.00
49122;BME280;35529;44.342;25.944;2022-12-15T10:46:12;100281.66;;;7.65;100.00
49122;BME280;35529;44.342;25.944;2022-12-15T10:48:39;100288.78;;;7.80;100.00
49122;BME280;35529;44.342;25.944;2022-12-15T10:51:13;100286.13;;;7.80;100.00
49122;BME280;35529;44.342;25.944;2022-12-15T10:53:53;100272.09;;;7.64;100.00
49122;BME280;35529;44.342;25.944;2022-12-15T10:56:24;100275.63;;;7.57;100.00
49122;BME280;35529;44.342;25.944;2022-12-15T10:58:52;100279.03;;;7.65;100.00
49122;BME280;35529;44.342;25.944;2022-12-15T11:01:25;100288.22;;;7.69;100.00
49122;BME280;35529;44.342;25.944;2022-12-15T11:03:52;100283.75;;;7.70;100.00
49122;BME280;35529;44.342;25.944;2022-12-15T11:06:23;100268.34;;;7.74;100.00
49122;BME280;35529;44.342;25.944;2022-12-15T11:08:50;100275.72;;;7.78;100.00
49122;BME280;35529;44.342;25.944;2022-12-15T11:11:28;100279.00;;;7.80;100.00
49122;BME280;35529;44.342;25.944;2022-12-15T11:14:15;100285.47;;;7.78;100.00
49122;BME280;35529;44.342;25.944;2022-12-15T11:16:44;100281.47;;;7.82;100.00
49122;BME280;35529;44.342;25.944;2022-12-15T11:19:17;100286.47;;;7.62;100.00
49122;BME280;35529;44.342;25.944;2022-12-15T11:21:47;100285.66;;;7.61;100.00
49122;BME280;35529;44.342;25.944;2022-12-15T11:24:17;100285.91;;;7.51;100.00
49122;BME280;35529;44.342;25.944;2022-12-15T11:26:57;100285.00;;;7.44;100.00
49122;BME280;35529;44.342;25.944;2022-12-15T11:29:28;100293.50;;;7.40;100.00
49122;BME280;35529;44.342;25.944;2022-12-15T11:31:59;100282.16;;;7.31;100.00
49122;BME280;35529;44.342;25.944;2022-12-15T11:34:26;100275.06;;;7.31;100.00
49122;BME280;35529;44.342;25.944;2022-12-15T11:37:02;100284.34;;;7.27;100.00
49122;BME280;35529;44.342;25.944;2022-12-15T11:42:05;100284.59;;;7.17;100.00
49122;BME280;35529;44.342;25.944;2022-12-15T11:44:47;100285.06;;;7.21;100.00
49122;BME280;35529;44.342;25.944;2022-12-15T11:52:46;100291.72;;;7.17;100.00
49122;BME280;35529;44.342;25.944;2022-12-15T11:55:21;100290.47;;;7.28;100.00
49122;BME280;35529;44.342;25.944;2022-12-15T12:00:19;100295.94;;;7.26;100.00
49122;BME280;35529;44.342;25.944;2022-12-15T12:05:49;100308.56;;;7.16;100.00
49122;BME280;35529;44.342;25.944;2022-12-15T12:08:25;100308.91;;;7.13;100.00
49122;BME280;35529;44.342;25.944;2022-12-15T12:19:12;100323.19;;;7.03;100.00
49122;BME280;35529;44.342;25.944;2022-12-15T12:21:39;100325.94;;;7.10;100.00
49122;BME280;35529;44.342;25.944;2022-12-15T12:24:22;100343.38;;;7.11;100.00
49122;BME280;35529;44.342;25.944;2022-12-15T12:32:10;100365.47;;;7.18;100.00
49122;BME280;35529;44.342;25.944;2022-12-15T12:37:30;100362.53;;;7.13;100.00
49122;BME280;35529;44.342;25.944;2022-12-15T12:40:00;100358.06;;;7.14;100.00
49122;BME280;35529;44.342;25.944;2022-12-15T12:42:36;100356.31;;;7.06;100.00
49122;BME280;35529;44.342;25.944;2022-12-15T12:45:09;100358.13;;;7.05;100.00
49122;BME280;35529;44.342;25.944;2022-12-15T12:47:36;100364.41;;;7.04;100.00
49122;BME280;35529;44.342;25.944;2022-12-15T12:50:21;100365.94;;;6.99;100.00
49122;BME280;35529;44.342;25.944;2022-12-15T12:52:53;100364.41;;;7.04;100.00
49122;BME280;35529;44.342;25.944;2022-12-15T12:57:51;100369.78;;;6.88;100.00
49122;BME280;35529;44.342;25.944;2022-12-15T13:02:54;100366.53;;;6.78;100.00
49122;BME280;35529;44.342;25.944;2022-12-15T13:05:25;100379.41;;;6.81;100.00
49122;BME280;35529;44.342;25.944;2022-12-15T13:07:57;100388.69;;;6.77;100.00
49122;BME280;35529;44.342;25.944;2022-12-15T13:10:42;100382.69;;;6.83;100.00
49122;BME280;35529;44.342;25.944;2022-12-15T13:15:43;100381.50;;;6.85;100.00
49122;BME280;35529;44.342;25.944;2022-12-15T13:18:18;100386.78;;;6.85;100.00
49122;BME280;35529;44.342;25.944;2022-12-15T13:20:46;100388.28;;;6.88;100.00
49122;BME280;35529;44.342;25.944;2022-12-15T13:25:45;100400.03;;;6.77;100.00
49122;BME280;35529;44.342;25.944;2022-12-15T13:34:13;100426.66;;;6.67;100.00
49122;BME280;35529;44.342;25.944;2022-12-15T13:46:48;100453.06;;;6.51;100.00
49122;BME280;35529;44.342;25.944;2022-12-15T13:49:39;100457.19;;;6.53;100.00
49122;BME280;35529;44.342;25.944;2022-12-15T13:52:07;100445.34;;;6.49;100.00
49122;BME280;35529;44.342;25.944;2022-12-15T13:54:37;100457.03;;;6.47;100.00
49122;BME280;35529;44.342;25.944;2022-12-15T13:57:11;100471.41;;;6.44;100.00
49122;BME280;35529;44.342;25.944;2022-12-15T14:05:29;100463.09;;;6.08;100.00
49122;BME280;35529;44.342;25.944;2022-12-15T14:10:21;100462.91;;;5.84;100.00
49122;BME280;35529;44.342;25.944;2022-12-15T14:12:49;100463.56;;;5.78;100.00
49122;BME280;35529;44.342;25.944;2022-12-15T14:15:17;100454.53;;;5.73;100.00
49122;BME280;35529;44.342;25.944;2022-12-15T14:17:45;100465.56;;;5.84;100.00
49122;BME280;35529;44.342;25.944;2022-12-15T14:20:23;100458.63;;;5.83;100.00
49122;BME280;35529;44.342;25.944;2022-12-15T14:22:49;100468.66;;;5.80;100.00
49122;BME280;35529;44.342;25.944;2022-12-15T14:25:19;100482.53;;;5.74;100.00
49122;BME280;35529;44.342;25.944;2022-12-15T14:27:46;100478.88;;;5.66;100.00
49122;BME280;35529;44.342;25.944;2022-12-15T14:30:20;100490.44;;;5.65;100.00
49122;BME280;35529;44.342;25.944;2022-12-15T14:33:09;100499.13;;;5.58;100.00
49122;BME280;35529;44.342;25.944;2022-12-15T14:35:43;100509.66;;;5.49;100.00
49122;BME280;35529;44.342;25.944;2022-12-15T14:38:20;100507.66;;;5.35;100.00
49122;BME280;35529;44.342;25.944;2022-12-15T14:40:47;100519.50;;;5.31;100.00
49122;BME280;35529;44.342;25.944;2022-12-15T14:43:18;100527.56;;;5.29;100.00
49122;BME280;35529;44.342;25.944;2022-12-15T14:45:45;100526.88;;;5.27;100.00